Time;durP1;ratioP1;P1;durP2;ratioP2;P2;SDS_P1;SDS_P2;PMS_P1;PMS_P2;Temp;Humidity;BMP_temperature;BMP_pressure;BME280_temperature;BME280_humidity;BME280_pressure;Samples;Min_cycle;Max_cycle;Signal;HPM_P1;HPM_P2
2023/08/08 19:08:50;;;;;;;;;;;23.60;52.20;;;;;;2592425;19;52102;-76
2023/08/08 19:09:50;;;;;;;;;;;24.10;51.60;;;;;;3049923;19;5525;-71
2023/08/08 19:10:51;;;;;;;;;;;24.10;51.50;;;;;;3053461;19;6070;-72
2023/08/08 19:11:52;;;;;;;;;;;24.10;51.20;;;;;;3052321;19;7154;-72
2023/08/08 19:12:52;;;;;;;;;;;24.10;51.30;;;;;;3052580;19;5439;-73
2023/08/08 19:13:53;;;;;;;;;;;24.10;51.40;;;;;;3052813;19;5183;-73
2023/08/08 19:14:54;;;;;;;;;;;24.10;51.40;;;;;;3054599;19;4863;-77
2023/08/08 19:15:54;;;;;;;;;;;24.10;51.30;;;;;;3053503;19;4775;-79
2023/08/08 19:16:55;;;;;;;;;;;24.10;51.20;;;;;;3054333;19;5380;-76
2023/08/08 19:17:55;;;;;;;;;;;24.10;51.80;;;;;;3055404;19;5225;-77
2023/08/08 19:18:56;;;;;;;;;;;24.20;51.80;;;;;;3057218;19;5271;-76
2023/08/08 19:19:57;;;;;;;;;;;24.20;51.60;;;;;;3057031;19;5367;-75
2023/08/08 19:20:57;;;;;;;;;;;24.30;51.40;;;;;;3056534;19;4791;-77
2023/08/08 19:21:58;;;;;;;;;;;24.40;51.50;;;;;;3059010;19;5657;-76
2023/08/08 19:22:59;;;;;;;;;;;24.30;51.30;;;;;;3059810;19;4788;-76
2023/08/08 19:24:00;;;;;;;;;;;24.30;51.90;;;;;;3062023;19;5373;-76
2023/08/08 19:25:00;;;;;;;;;;;24.30;51.10;;;;;;3063089;19;5314;-77
2023/08/08 19:26:01;;;;;;;;;;;24.40;51.30;;;;;;3067111;19;5711;-76
2023/08/08 19:27:02;;;;;;;;;;;24.30;51.10;;;;;;3074555;19;5224;-78
2023/08/08 19:28:03;;;;;;;;;;;24.30;51.10;;;;;;3074921;19;5158;-76
2023/08/08 19:29:03;;;;;;;;;;;24.30;51.60;;;;;;3075213;19;4481;-76
2023/08/08 19:30:05;;;;;;;;;;;24.30;51.00;;;;;;3074626;19;4687;-76
2023/08/08 19:31:05;;;;;;;;;;;24.40;51.50;;;;;;3075280;19;4616;-76
2023/08/08 19:32:06;;;;;;;;;;;24.30;51.90;;;;;;3074375;19;20349;-77
2023/08/08 19:33:07;;;;;;;;;;;24.40;51.00;;;;;;3075048;19;5445;-75
2023/08/08 19:34:08;;;;;;;;;;;24.30;51.20;;;;;;3075211;19;4468;-75
2023/08/08 19:35:08;;;;;;;;;;;24.30;51.00;;;;;;3074111;19;5420;-76
2023/08/08 19:36:09;;;;;;;;;;;24.30;51.30;;;;;;3074924;19;5385;-76
2023/08/08 19:37:10;;;;;;;;;;;24.30;51.20;;;;;;3074254;19;5260;-76
2023/08/08 19:38:11;;;;;;;;;;;24.30;51.20;;;;;;3073723;19;5518;-75
2023/08/08 19:39:11;;;;;;;;;;;24.30;51.30;;;;;;3074379;19;5389;-75
2023/08/08 19:40:12;;;;;;;;;;;24.30;51.30;;;;;;3073177;19;5186;-77
2023/08/08 19:41:13;;;;;;;;;;;24.30;51.90;;;;;;3074420;19;5466;-76
2023/08/08 19:42:13;;;;;;;;;;;24.30;51.10;;;;;;3073358;19;4785;-76
2023/08/08 19:43:14;;;;;;;;;;;24.30;51.20;;;;;;3074404;19;5315;-76
2023/08/08 19:44:15;;;;;;;;;;;24.30;51.00;;;;;;3074439;19;5452;-76
2023/08/08 19:45:15;;;;;;;;;;;24.30;51.00;;;;;;3074116;19;5731;-76
2023/08/08 19:46:16;;;;;;;;;;;24.30;51.30;;;;;;3073652;19;5384;-76
2023/08/08 19:47:16;;;;;;;;;;;24.20;51.30;;;;;;3072962;19;5352;-76
2023/08/08 19:48:17;;;;;;;;;;;24.30;51.20;;;;;;3064571;19;5073;-76
2023/08/08 19:49:18;;;;;;;;;;;24.20;51.40;;;;;;3063772;19;5389;-77
2023/08/08 19:50:18;;;;;;;;;;;24.20;51.40;;;;;;3062790;19;5272;-76
2023/08/08 19:51:19;;;;;;;;;;;24.20;51.00;;;;;;3062469;19;5454;-76
2023/08/08 19:52:20;;;;;;;;;;;24.20;51.40;;;;;;3063559;19;4755;-76
2023/08/08 19:53:20;;;;;;;;;;;24.20;51.50;;;;;;3062356;19;5394;-77
2023/08/08 19:54:21;;;;;;;;;;;24.20;51.10;;;;;;3062890;19;4770;-73
2023/08/08 19:55:21;;;;;;;;;;;24.20;51.70;;;;;;3054870;19;4593;-72
2023/08/08 19:56:22;;;;;;;;;;;24.30;51.60;;;;;;3055453;19;5482;-71
2023/08/08 19:57:23;;;;;;;;;;;24.20;51.20;;;;;;3051684;19;6408;-71
2023/08/08 19:58:25;;;;;;;;;;;24.40;51.50;;;;;;3053512;19;5249;-82
2023/08/08 19:59:26;;;;;;;;;;;24.10;51.80;;;;;;3060723;19;4989;-82
2023/08/08 20:00:27;;;;;;;;;;;24.10;51.70;;;;;;3060924;19;5417;-80
2023/08/08 20:01:28;;;;;;;;;;;24.20;51.70;;;;;;3059905;19;4757;-80
2023/08/08 20:02:29;;;;;;;;;;;24.20;51.50;;;;;;3059764;19;5442;-80
2023/08/08 20:03:29;;;;;;;;;;;24.10;51.60;;;;;;3058910;19;5173;-81
2023/08/08 20:04:30;;;;;;;;;;;24.20;51.50;;;;;;3059535;19;5384;-80
2023/08/08 20:05:31;;;;;;;;;;;24.10;51.30;;;;;;3058889;19;4994;-80
2023/08/08 20:06:32;;;;;;;;;;;24.10;51.60;;;;;;3057884;19;5186;-81
2023/08/08 20:07:32;;;;;;;;;;;24.10;51.40;;;;;;3059043;19;4833;-83
2023/08/08 20:08:33;;;;;;;;;;;24.10;51.70;;;;;;3057774;19;5729;-81
2023/08/08 20:09:34;;;;;;;;;;;24.10;51.70;;;;;;3058284;19;5315;-79
2023/08/08 20:10:34;;;;;;;;;;;24.10;51.70;;;;;;3057338;19;4635;-81
2023/08/08 20:11:37;;;;;;;;;;;23.50;51.30;;;;;;3058260;19;5805;-80
2023/08/08 20:12:38;;;;;;;;;;;24.10;51.60;;;;;;3057904;19;5386;-79
2023/08/08 20:13:38;;;;;;;;;;;24.10;51.70;;;;;;3058349;19;5510;-80
2023/08/08 20:14:41;;;;;;;;;;;24.10;51.70;;;;;;3058812;19;5072;-78
2023/08/08 20:15:42;;;;;;;;;;;24.10;51.70;;;;;;3058402;19;5438;-80
2023/08/08 20:16:42;;;;;;;;;;;24.10;51.70;;;;;;3058642;19;5463;-82
2023/08/08 20:17:43;;;;;;;;;;;24.10;51.80;;;;;;3059557;19;5209;-81
2023/08/08 20:18:43;;;;;;;;;;;24.10;51.30;;;;;;3058636;19;5366;-74
2023/08/08 20:19:44;;;;;;;;;;;24.10;51.80;;;;;;3057573;19;5193;-73
2023/08/08 20:20:45;;;;;;;;;;;24.10;51.60;;;;;;3058092;19;6605;-72
2023/08/08 20:21:45;;;;;;;;;;;24.10;52.10;;;;;;3058079;19;5426;-72
2023/08/08 20:22:46;;;;;;;;;;;24.10;51.60;;;;;;3057527;19;5182;-73
2023/08/08 20:23:47;;;;;;;;;;;24.00;52.00;;;;;;3056917;19;4886;-74
2023/08/08 20:24:47;;;;;;;;;;;24.20;52.10;;;;;;3058045;19;4875;-72
2023/08/08 20:25:48;;;;;;;;;;;23.80;51.80;;;;;;3055651;19;4713;-73
2023/08/08 20:26:49;;;;;;;;;;;24.00;51.80;;;;;;3057141;19;4930;-73
2023/08/08 20:27:49;;;;;;;;;;;24.10;52.00;;;;;;3056485;19;4826;-73
2023/08/08 20:28:51;;;;;;;;;;;24.10;52.00;;;;;;3058366;19;5423;-73
2023/08/08 20:29:52;;;;;;;;;;;24.00;51.80;;;;;;3057082;19;4621;-73
2023/08/08 20:30:52;;;;;;;;;;;24.00;51.80;;;;;;3054753;19;5347;-73
2023/08/08 20:31:54;;;;;;;;;;;24.00;51.90;;;;;;3056573;19;5301;-74
2023/08/08 20:32:58;;;;;;;;;;;24.00;51.60;;;;;;3057063;19;4718;-73
2023/08/08 20:33:58;;;;;;;;;;;24.10;52.00;;;;;;3057654;19;5388;-72
2023/08/08 20:35:02;;;;;;;;;;;24.00;52.00;;;;;;3056356;19;5328;-74
2023/08/08 20:36:03;;;;;;;;;;;23.90;52.10;;;;;;3055574;19;4660;-73
2023/08/08 20:37:06;;;;;;;;;;;24.00;51.60;;;;;;3056375;19;6318;-74
2023/08/08 20:38:07;;;;;;;;;;;24.40;52.30;;;;;;3055724;19;5328;-73
2023/08/08 20:39:07;;;;;;;;;;;24.00;51.90;;;;;;3055468;19;5604;-73
2023/08/08 20:40:13;;;;;;;;;;;24.00;51.90;;;;;;3055670;19;4653;-72
2023/08/08 20:41:14;;;;;;;;;;;24.00;51.70;;;;;;3053489;19;5180;-73
2023/08/08 20:42:15;;;;;;;;;;;24.00;51.70;;;;;;3055225;19;5359;-73
2023/08/08 20:43:16;;;;;;;;;;;24.00;51.70;;;;;;3055079;19;4794;-73
2023/08/08 20:44:17;;;;;;;;;;;24.00;51.70;;;;;;3054112;19;5218;-73
2023/08/08 20:45:18;;;;;;;;;;;23.90;52.30;;;;;;3055015;19;7851;-73
2023/08/08 20:46:19;;;;;;;;;;;24.00;51.80;;;;;;3055032;19;4784;-73
2023/08/08 20:47:21;;;;;;;;;;;24.00;52.20;;;;;;3055376;19;5379;-72
2023/08/08 20:48:21;;;;;;;;;;;24.00;51.60;;;;;;3056024;19;5394;-73
2023/08/08 20:49:22;;;;;;;;;;;24.00;51.80;;;;;;3055517;19;5291;-74
2023/08/08 20:50:23;;;;;;;;;;;23.90;51.90;;;;;;3054805;19;5543;-73
2023/08/08 20:51:25;;;;;;;;;;;23.90;51.90;;;;;;3052465;19;5335;-73
2023/08/08 20:52:26;;;;;;;;;;;23.90;51.90;;;;;;3054417;19;5016;-72
2023/08/08 20:53:26;;;;;;;;;;;23.90;51.80;;;;;;3055141;19;5225;-71
2023/08/08 20:54:28;;;;;;;;;;;23.90;51.90;;;;;;3055612;19;5287;-73
2023/08/08 20:55:29;;;;;;;;;;;24.00;52.10;;;;;;3055424;19;4631;-73
2023/08/08 20:56:29;;;;;;;;;;;24.30;52.20;;;;;;3054430;19;5326;-73
2023/08/08 20:57:31;;;;;;;;;;;24.30;51.90;;;;;;3054214;19;5165;-73
2023/08/08 20:58:33;;;;;;;;;;;23.90;51.90;;;;;;3054443;19;5388;-72
2023/08/08 20:59:34;;;;;;;;;;;23.90;51.90;;;;;;3054200;19;4803;-74
2023/08/08 21:00:34;;;;;;;;;;;23.90;51.90;;;;;;3054122;19;5282;-73
2023/08/08 21:01:35;;;;;;;;;;;23.90;51.80;;;;;;3055499;19;5609;-72
2023/08/08 21:02:36;;;;;;;;;;;23.90;52.30;;;;;;3052232;19;5202;-72
2023/08/08 21:03:36;;;;;;;;;;;23.90;52.10;;;;;;3053524;19;5376;-72
2023/08/08 21:04:39;;;;;;;;;;;23.90;51.80;;;;;;3055732;19;4759;-74
2023/08/08 21:05:40;;;;;;;;;;;23.90;52.00;;;;;;3052482;19;4648;-72
2023/08/08 21:06:41;;;;;;;;;;;23.90;52.00;;;;;;3053329;19;4712;-72
2023/08/08 21:07:41;;;;;;;;;;;23.90;52.20;;;;;;3052035;19;4895;-73
2023/08/08 21:08:42;;;;;;;;;;;24.60;52.50;;;;;;3052008;19;5102;-68
2023/08/08 21:09:43;;;;;;;;;;;23.90;51.90;;;;;;3054653;19;5421;-70
2023/08/08 21:10:45;;;;;;;;;;;23.90;51.90;;;;;;3053278;19;5163;-70
2023/08/08 21:11:45;;;;;;;;;;;23.90;51.90;;;;;;3053345;19;4659;-69
2023/08/08 21:12:46;;;;;;;;;;;23.90;51.90;;;;;;3050561;19;5739;-68
2023/08/08 21:13:47;;;;;;;;;;;23.90;52.20;;;;;;3054630;19;4905;-69
2023/08/08 21:14:47;;;;;;;;;;;23.90;52.30;;;;;;3053701;19;4795;-69
2023/08/08 21:15:48;;;;;;;;;;;23.90;51.60;;;;;;3053495;19;6195;-70
2023/08/08 21:16:48;;;;;;;;;;;23.90;52.00;;;;;;3051081;19;5253;-70
2023/08/08 21:17:49;;;;;;;;;;;23.90;52.00;;;;;;3053314;19;4936;-70
2023/08/08 21:18:50;;;;;;;;;;;23.90;51.60;;;;;;3050857;19;5277;-70
2023/08/08 21:19:52;;;;;;;;;;;23.90;51.60;;;;;;3052118;19;5278;-69
2023/08/08 21:20:53;;;;;;;;;;;23.90;51.80;;;;;;3049481;19;5402;-69
2023/08/08 21:21:55;;;;;;;;;;;23.90;51.70;;;;;;3052889;19;5395;-70
2023/08/08 21:22:57;;;;;;;;;;;23.90;51.90;;;;;;3052181;19;4933;-69
2023/08/08 21:23:57;;;;;;;;;;;23.90;51.70;;;;;;3049401;19;5325;-69
2023/08/08 21:24:58;;;;;;;;;;;23.90;51.70;;;;;;3051093;19;5281;-70
2023/08/08 21:25:58;;;;;;;;;;;23.90;51.50;;;;;;3051324;19;5482;-69
2023/08/08 21:26:59;;;;;;;;;;;23.90;51.60;;;;;;3051852;19;5401;-70
2023/08/08 21:28:00;;;;;;;;;;;23.90;52.00;;;;;;3053181;19;5454;-69
2023/08/08 21:29:02;;;;;;;;;;;23.80;51.90;;;;;;3054234;19;5296;-69
2023/08/08 21:30:06;;;;;;;;;;;23.80;51.90;;;;;;3053205;19;5306;-71
2023/08/08 21:31:07;;;;;;;;;;;23.80;51.70;;;;;;3052827;19;4779;-71
2023/08/08 21:32:08;;;;;;;;;;;23.80;51.70;;;;;;3053361;19;5172;-70
2023/08/08 21:33:08;;;;;;;;;;;23.80;51.90;;;;;;3053433;19;5324;-69
2023/08/08 21:34:11;;;;;;;;;;;23.80;51.80;;;;;;3051312;19;5188;-69
2023/08/08 21:35:11;;;;;;;;;;;23.80;51.90;;;;;;3053002;19;881;-68
2023/08/08 21:36:12;;;;;;;;;;;23.80;52.00;;;;;;3050093;19;5245;-69
2023/08/08 21:37:13;;;;;;;;;;;23.80;52.20;;;;;;3053432;19;4785;-70
2023/08/08 21:38:13;;;;;;;;;;;23.80;52.20;;;;;;3052679;19;5596;-69
2023/08/08 21:39:14;;;;;;;;;;;23.40;51.70;;;;;;3053012;19;5429;-68
2023/08/08 21:40:14;;;;;;;;;;;23.80;52.00;;;;;;3052645;19;4903;-69
2023/08/08 21:41:15;;;;;;;;;;;23.80;51.90;;;;;;3054011;19;5581;-69
2023/08/08 21:42:17;;;;;;;;;;;23.80;52.20;;;;;;3050979;19;5285;-70
2023/08/08 21:43:17;;;;;;;;;;;23.80;52.10;;;;;;3051796;19;5797;-70
2023/08/08 21:44:18;;;;;;;;;;;23.80;52.40;;;;;;3049969;19;5328;-69
2023/08/08 21:45:19;;;;;;;;;;;24.40;52.60;;;;;;3053727;19;4985;-69
2023/08/08 21:46:20;;;;;;;;;;;23.80;52.10;;;;;;3054785;19;6496;-69
2023/08/08 21:47:20;;;;;;;;;;;23.80;52.20;;;;;;3053787;19;5012;-68
2023/08/08 21:48:22;;;;;;;;;;;23.70;52.40;;;;;;3053159;19;4981;-73
2023/08/08 21:49:23;;;;;;;;;;;23.80;52.30;;;;;;3054133;19;6603;-72
2023/08/08 21:50:25;;;;;;;;;;;23.70;52.30;;;;;;3054040;19;4557;-71
2023/08/08 21:51:25;;;;;;;;;;;23.80;52.50;;;;;;3054196;19;5400;-72
2023/08/08 21:52:26;;;;;;;;;;;23.70;52.50;;;;;;3053927;19;4661;-73
2023/08/08 21:53:27;;;;;;;;;;;23.80;52.60;;;;;;3054207;19;5523;-73
2023/08/08 21:54:28;;;;;;;;;;;23.80;52.50;;;;;;3053707;19;5312;-71
2023/08/08 21:55:28;;;;;;;;;;;23.80;52.60;;;;;;3032156;19;5674;-72
2023/08/08 21:56:29;;;;;;;;;;;23.80;52.40;;;;;;3054973;19;4711;-72
2023/08/08 21:57:30;;;;;;;;;;;23.70;52.50;;;;;;3053523;19;4774;-71
2023/08/08 21:58:31;;;;;;;;;;;23.80;52.60;;;;;;3052733;19;4760;-71
2023/08/08 21:59:31;;;;;;;;;;;23.70;52.50;;;;;;3054864;19;5433;-71
2023/08/08 22:00:32;;;;;;;;;;;23.70;52.60;;;;;;3052807;19;5949;-72
2023/08/08 22:01:33;;;;;;;;;;;23.70;52.80;;;;;;3053599;19;4735;-71
2023/08/08 22:02:34;;;;;;;;;;;23.70;52.60;;;;;;3054789;19;4799;-73
2023/08/08 22:03:35;;;;;;;;;;;23.70;52.50;;;;;;3056324;19;5360;-72
2023/08/08 22:04:35;;;;;;;;;;;23.70;52.60;;;;;;3059047;19;5206;-73
2023/08/08 22:05:36;;;;;;;;;;;23.70;52.70;;;;;;3060574;19;6045;-71
2023/08/08 22:06:37;;;;;;;;;;;23.60;52.60;;;;;;3059968;19;5138;-72
2023/08/08 22:07:37;;;;;;;;;;;23.70;52.80;;;;;;3061451;19;5862;-71
2023/08/08 22:08:38;;;;;;;;;;;23.90;52.80;;;;;;3060737;19;5624;-71
2023/08/08 22:09:39;;;;;;;;;;;23.70;52.80;;;;;;3063586;19;5268;-72
2023/08/08 22:10:39;;;;;;;;;;;23.70;52.80;;;;;;3067120;19;5418;-71
2023/08/08 22:11:40;;;;;;;;;;;22.70;52.30;;;;;;3075133;19;5256;-72
2023/08/08 22:12:42;;;;;;;;;;;23.70;52.80;;;;;;3076009;19;5300;-72
2023/08/08 22:13:43;;;;;;;;;;;23.70;52.80;;;;;;3075557;19;5439;-72
2023/08/08 22:14:44;;;;;;;;;;;23.70;53.10;;;;;;3074658;19;5309;-72
2023/08/08 22:15:45;;;;;;;;;;;23.70;52.80;;;;;;3075762;19;4898;-72
2023/08/08 22:16:46;;;;;;;;;;;23.70;52.90;;;;;;3075997;19;5316;-73
2023/08/08 22:17:46;;;;;;;;;;;24.30;53.20;;;;;;3076425;19;4879;-72
2023/08/08 22:18:47;;;;;;;;;;;23.70;53.20;;;;;;3076014;19;6383;-81
2023/08/08 22:19:48;;;;;;;;;;;23.70;53.10;;;;;;3075630;19;5751;-81
2023/08/08 22:20:49;;;;;;;;;;;23.70;52.90;;;;;;3076101;19;5366;-81
2023/08/08 22:21:49;;;;;;;;;;;23.70;53.10;;;;;;3075567;19;4682;-81
2023/08/08 22:22:50;;;;;;;;;;;23.70;53.20;;;;;;3074541;19;5846;-81
2023/08/08 22:23:51;;;;;;;;;;;23.70;53.10;;;;;;3076529;19;5226;-80
2023/08/08 22:24:51;;;;;;;;;;;23.70;53.20;;;;;;3075608;19;5504;-82
2023/08/08 22:25:53;;;;;;;;;;;23.30;52.90;;;;;;3076154;19;5397;-80
2023/08/08 22:26:55;;;;;;;;;;;23.70;53.20;;;;;;3076321;19;5332;-80
2023/08/08 22:27:55;;;;;;;;;;;23.70;53.20;;;;;;3074563;19;5374;-81
2023/08/08 22:28:56;;;;;;;;;;;23.70;53.20;;;;;;3075577;19;5338;-81
2023/08/08 22:29:56;;;;;;;;;;;23.70;53.20;;;;;;3075660;19;5292;-81
2023/08/08 22:30:57;;;;;;;;;;;23.60;53.10;;;;;;3074004;19;8963;-79
2023/08/08 22:31:58;;;;;;;;;;;23.60;53.10;;;;;;3071485;19;5271;-80
2023/08/08 22:32:59;;;;;;;;;;;23.70;53.30;;;;;;3065105;19;5267;-79
2023/08/08 22:34:00;;;;;;;;;;;23.60;53.30;;;;;;3065427;19;4829;-79
2023/08/08 22:35:00;;;;;;;;;;;23.60;53.20;;;;;;3065531;19;5302;-80
2023/08/08 22:36:01;;;;;;;;;;;23.60;53.30;;;;;;3064577;19;5309;-80
2023/08/08 22:37:01;;;;;;;;;;;23.60;53.30;;;;;;3064122;19;5512;-82
2023/08/08 22:38:02;;;;;;;;;;;23.60;53.10;;;;;;3062040;19;5361;-79
2023/08/08 22:39:04;;;;;;;;;;;23.60;53.40;;;;;;3063099;19;5384;-79
2023/08/08 22:40:09;;;;;;;;;;;23.60;53.40;;;;;;3063368;19;4753;-79
2023/08/08 22:41:10;;;;;;;;;;;23.60;53.30;;;;;;3063519;19;5278;-80
2023/08/08 22:42:10;;;;;;;;;;;23.60;53.30;;;;;;3062627;19;862;-79
2023/08/08 22:43:11;;;;;;;;;;;23.60;53.60;;;;;;3060887;19;4693;-79
2023/08/08 22:44:11;;;;;;;;;;;23.60;53.40;;;;;;3062175;19;4743;-78
2023/08/08 22:45:12;;;;;;;;;;;23.70;53.50;;;;;;3061843;19;5330;-80
2023/08/08 22:46:13;;;;;;;;;;;23.60;53.40;;;;;;3061008;19;5019;-79
2023/08/08 22:47:14;;;;;;;;;;;23.60;53.50;;;;;;3060507;19;5165;-80
2023/08/08 22:48:16;;;;;;;;;;;23.60;53.60;;;;;;3061474;19;4778;-80
2023/08/08 22:49:17;;;;;;;;;;;23.50;53.50;;;;;;3059150;19;4776;-81
2023/08/08 22:50:18;;;;;;;;;;;23.60;53.70;;;;;;3061083;19;5390;-80
2023/08/08 22:51:20;;;;;;;;;;;23.60;54.30;;;;;;3060849;19;5461;-80
2023/08/08 22:52:20;;;;;;;;;;;23.60;53.60;;;;;;3061398;19;4740;-79
2023/08/08 22:53:21;;;;;;;;;;;23.60;53.50;;;;;;3060764;19;5725;-80
2023/08/08 22:54:22;;;;;;;;;;;23.60;53.70;;;;;;3060421;19;4786;-80
2023/08/08 22:55:22;;;;;;;;;;;23.60;53.80;;;;;;3061486;19;5403;-80
2023/08/08 22:56:23;;;;;;;;;;;23.50;53.70;;;;;;3060475;19;5323;-79
2023/08/08 22:57:23;;;;;;;;;;;23.60;53.90;;;;;;3059848;19;5600;-80
2023/08/08 22:58:24;;;;;;;;;;;23.80;54.00;;;;;;3059893;19;5465;-74
2023/08/08 22:59:25;;;;;;;;;;;23.50;53.80;;;;;;3058886;19;6476;-72
2023/08/08 23:00:25;;;;;;;;;;;23.60;54.00;;;;;;3058583;19;5141;-72
2023/08/08 23:01:26;;;;;;;;;;;23.60;53.90;;;;;;3058468;19;5298;-73
2023/08/08 23:02:27;;;;;;;;;;;23.60;53.90;;;;;;3056917;19;4714;-73
2023/08/08 23:03:27;;;;;;;;;;;23.60;54.00;;;;;;3059169;19;5260;-73
2023/08/08 23:04:28;;;;;;;;;;;23.50;54.00;;;;;;3058134;19;4657;-74
2023/08/08 23:05:28;;;;;;;;;;;23.50;54.00;;;;;;3058043;19;5308;-72
2023/08/08 23:06:29;;;;;;;;;;;23.50;54.00;;;;;;3058122;19;4747;-74
2023/08/08 23:07:30;;;;;;;;;;;23.50;54.10;;;;;;3057124;19;5387;-73
2023/08/08 23:08:30;;;;;;;;;;;23.50;54.10;;;;;;3056496;19;4575;-74
2023/08/08 23:09:31;;;;;;;;;;;23.50;54.00;;;;;;3057834;19;5352;-74
2023/08/08 23:10:32;;;;;;;;;;;23.60;54.20;;;;;;3057347;19;5232;-74
2023/08/08 23:11:32;;;;;;;;;;;23.50;54.10;;;;;;3057039;19;5152;-72
2023/08/08 23:12:33;;;;;;;;;;;23.60;54.20;;;;;;3057079;19;5289;-74
2023/08/08 23:13:33;;;;;;;;;;;23.50;54.10;;;;;;3057366;19;5284;-73
2023/08/08 23:14:34;;;;;;;;;;;23.50;54.20;;;;;;3056888;19;5225;-73
2023/08/08 23:15:35;;;;;;;;;;;23.50;54.30;;;;;;3056578;19;5662;-75
2023/08/08 23:16:35;;;;;;;;;;;23.50;54.30;;;;;;3057848;19;5411;-73
2023/08/08 23:17:36;;;;;;;;;;;23.50;54.30;;;;;;3058608;19;5369;-75
2023/08/08 23:18:37;;;;;;;;;;;23.50;54.30;;;;;;3055895;19;6559;-73
2023/08/08 23:19:38;;;;;;;;;;;23.50;54.40;;;;;;3057981;19;4711;-73
2023/08/08 23:20:38;;;;;;;;;;;23.50;54.30;;;;;;3055938;19;5209;-71
2023/08/08 23:21:39;;;;;;;;;;;24.40;55.40;;;;;;3056049;19;5350;-73
2023/08/08 23:22:39;;;;;;;;;;;23.70;54.50;;;;;;3055486;19;5810;-73
2023/08/08 23:23:40;;;;;;;;;;;23.50;54.40;;;;;;3057270;19;4810;-74
2023/08/08 23:24:41;;;;;;;;;;;23.50;54.40;;;;;;3056309;19;5348;-72
2023/08/08 23:25:42;;;;;;;;;;;24.30;54.80;;;;;;3057761;19;5241;-73
2023/08/08 23:26:44;;;;;;;;;;;23.50;55.10;;;;;;3055095;19;5234;-73
2023/08/08 23:27:45;;;;;;;;;;;23.50;54.60;;;;;;3057717;19;5567;-74
2023/08/08 23:28:45;;;;;;;;;;;23.50;54.50;;;;;;3055244;19;5549;-76
2023/08/08 23:29:46;;;;;;;;;;;23.50;54.50;;;;;;3056912;19;5246;-74
2023/08/08 23:30:47;;;;;;;;;;;23.50;54.70;;;;;;3056829;19;4874;-75
2023/08/08 23:31:47;;;;;;;;;;;23.50;54.60;;;;;;3057153;19;5409;-75
2023/08/08 23:32:48;;;;;;;;;;;23.80;54.60;;;;;;3056510;19;5365;-75
2023/08/08 23:33:49;;;;;;;;;;;23.50;54.60;;;;;;3057792;19;4667;-76
2023/08/08 23:34:50;;;;;;;;;;;23.50;54.70;;;;;;3055837;19;4719;-74
2023/08/08 23:35:51;;;;;;;;;;;23.50;54.60;;;;;;3055013;19;5308;-75
2023/08/08 23:36:52;;;;;;;;;;;23.50;54.60;;;;;;3056570;19;5359;-75
2023/08/08 23:37:52;;;;;;;;;;;23.50;54.80;;;;;;3055773;19;5320;-75
2023/08/08 23:38:53;;;;;;;;;;;23.50;54.60;;;;;;3055212;19;4804;-75
2023/08/08 23:39:54;;;;;;;;;;;24.10;55.00;;;;;;3055257;19;5451;-75
2023/08/08 23:40:54;;;;;;;;;;;23.50;54.70;;;;;;3055256;19;5368;-76
2023/08/08 23:41:55;;;;;;;;;;;23.50;54.70;;;;;;3053800;19;5372;-75
2023/08/08 23:42:56;;;;;;;;;;;23.50;54.70;;;;;;3054494;19;5256;-72
2023/08/08 23:43:56;;;;;;;;;;;23.60;54.70;;;;;;3054599;19;5363;-74
2023/08/08 23:44:57;;;;;;;;;;;23.50;54.70;;;;;;3053137;19;5511;-75
2023/08/08 23:45:57;;;;;;;;;;;23.50;54.60;;;;;;3054089;19;5195;-74
2023/08/08 23:46:58;;;;;;;;;;;23.50;54.70;;;;;;3055539;19;5062;-74
2023/08/08 23:48:01;;;;;;;;;;;23.50;54.70;;;;;;3055244;19;5416;-75
2023/08/08 23:49:01;;;;;;;;;;;23.50;54.70;;;;;;3054438;19;5131;-74
2023/08/08 23:50:03;;;;;;;;;;;23.50;54.80;;;;;;3053827;19;5213;-74
2023/08/08 23:51:04;;;;;;;;;;;23.50;54.80;;;;;;3054394;19;4553;-75
2023/08/08 23:52:06;;;;;;;;;;;23.50;54.80;;;;;;3055027;19;5205;-75
2023/08/08 23:53:06;;;;;;;;;;;23.50;54.80;;;;;;3052003;19;5308;-74
2023/08/08 23:54:07;;;;;;;;;;;23.50;54.80;;;;;;3053577;19;5232;-75
2023/08/08 23:55:09;;;;;;;;;;;23.50;54.80;;;;;;3053769;19;5432;-75
2023/08/08 23:56:10;;;;;;;;;;;23.00;54.60;;;;;;3053338;19;5160;-75
2023/08/08 23:57:10;;;;;;;;;;;23.50;54.80;;;;;;3053372;19;5486;-75
2023/08/08 23:58:11;;;;;;;;;;;23.60;54.90;;;;;;3051690;19;5592;-75
2023/08/08 23:59:11;;;;;;;;;;;23.40;54.80;;;;;;3054870;19;5319;-74
